• Join FlightAware (Why Join?)
  • Login
  • US Flag 
11:35PM EDT


 

Airport Tracker/Info


-or-


 

Live Flight TrackerFlight Track Log ✈ SKW6335 ✈ 23-Apr-2013 ✈ KSAN - KLAX

Flight Track Log - Related Links

Times and Time Zones

All times are in EDT time to prevent confusion due to time zone crossing. See the SKW6335 flight status page for this flight to view local times or setup timezone preferences in your user account.

Time Position Orientation Groundspeed Altitude Reporting Facility
EDT Latitude Longitude Course Direction KTS MPH feet Rate Location/Type
07:06PM 32.7667 -117.2833 292° West 193 222 3,100  Level Southern California TRACON
07:07PM 32.7931 -117.3183 312° West 194 223 3,900 1,320 Climbing Los Angeles Center
07:08PM 32.8912 -117.3412 320° Northwest  Level FlightAware Approximate
07:08PM 32.8325 -117.3708 312° West 209 241 5,600  Level Los Angeles Center
07:09PM 32.9442 -117.3941 320° Northwest  Level FlightAware Approximate
07:09PM 32.8789 -117.4331 312° West 210 242 7,300  Level Los Angeles Center
07:10PM 32.9972 -117.4470 320° Northwest  Level FlightAware Approximate
07:10PM 32.9192 -117.4872 312° West 215 247 8,000  Level Los Angeles Center
07:11PM 32.9667 -117.5481 313° West 242 278 8,000  Level Los Angeles Center
07:12PM 33.0125 -117.6111 311° West 251 289 8,000  Level Los Angeles Center
07:13PM 33.0589 -117.6722 312° West 248 285 8,000  Level Los Angeles Center
07:14PM 33.1058 -117.7342 312° West 251 289 8,000  Level Los Angeles Center
07:15PM 33.1686 -117.7986 319° Northwest 252 290 8,000  Level Los Angeles Center
07:16PM 33.2336 -117.8267 340° North 251 289 8,000  Level Los Angeles Center
07:17PM 33.2994 -117.8533 341° North 251 289 8,000  Level Los Angeles Center
07:18PM 33.3664 -117.8808 341° North 253 291 8,000  Level Los Angeles Center
07:19PM 33.4450 -117.9117 342° North 250 288 8,000  Level Los Angeles Center
07:20PM 33.5242 -117.9436 341° North 251 289 8,000 -60 Level Los Angeles Center
07:22PM 33.5894 -117.9706 341° North 249 287 7,900  Descending Los Angeles Center
07:22PM 33.6333 -118.0000 331° Northwest 248 285 8,000 -360 Climbing Southern California TRACON
07:23PM 33.7000 -118.0167 348° North 266 306 7,300 -540 Descending Southern California TRACON
07:24PM 33.7667 -118.0500 337° Northwest 278 320 7,000 -180 Descending Southern California TRACON
07:25PM 33.8333 -118.0667 348° North 246 283 7,000  Level Southern California TRACON
07:26PM 33.9000 -118.0833 348° North 239 275 7,000 -420 Level Southern California TRACON
07:27PM 33.9667 -118.1000 348° North 205 236 6,200 -720 Descending Southern California TRACON
07:28PM 33.9628 -118.1253 259° West 206 237 5,900 -900 Descending Los Angeles Center
07:29PM 33.9564 -118.1867 263° West 188 216 4,800 -1,140 Descending Los Angeles Center
07:30PM 33.9508 -118.2453 263° West 181 208 3,600 -1,200 Descending Los Angeles Center